McColl, Texas
Current Conditions -  °F | °C
As of 11:16 AM on Thursday 18 Dec 2014 (Local Time) from KMFE Reporting Station
Overcast Overcast  
Wind Chill: 67°   Ceiling: 3300
Heat Index: 67°   Visibility: 7mi
Dew Point: 61°   Wind: 5mph
Humidity: 81%   Direction: 270°W
Pressure: 30.07"   Gusts: NA
Location:  26.2031°N, 98.2299°W
Report Text: KMFE 181716Z 27004KT 7SM SCT012 BKN033 OVC055 19/16 A3007 RMK AO2 T01940161
Loading
Personal Weather Stations






























Interactive Weather Map New forecast layout! Learn more

10-Day Weather Forecast

Advertisements
Track Severe Weather on mobile